Time;durP1;ratioP1;P1;durP2;ratioP2;P2;SDS_P1;SDS_P2;PMS_P1;PMS_P2;Temp;Humidity;BMP_temperature;BMP_pressure;BME280_temperature;BME280_humidity;BME280_pressure;Samples;Min_cycle;Max_cycle;Signal;HPM_P1;HPM_P2
2023/10/11 00:03:16;;;;;;;18.90;6.78;;;;;;;16.50;100.00;101168.09;4909978;29;20051;-89
2023/10/11 00:05:43;;;;;;;17.52;6.93;;;;;;;16.48;100.00;101178.47;4910780;29;21660;-89
2023/10/11 00:08:13;;;;;;;16.30;6.88;;;;;;;16.48;100.00;101164.63;4911758;29;20040;-89
2023/10/11 00:10:47;;;;;;;17.23;6.60;;;;;;;16.38;100.00;101170.19;4933479;29;20111;-89
2023/10/11 00:13:15;;;;;;;19.30;7.43;;;;;;;16.35;100.00;101176.88;4910169;29;20478;-90
2023/10/11 00:15:42;;;;;;;17.20;6.82;;;;;;;16.33;100.00;101173.41;4900438;29;20036;-90
2023/10/11 00:18:10;;;;;;;15.95;6.63;;;;;;;16.35;100.00;101163.06;4932787;29;20032;-90
2023/10/11 00:21:35;;;;;;;21.85;6.75;;;;;;;16.38;100.00;101177.59;4917691;29;20071;-89
2023/10/11 00:23:23;;;;;;;17.40;7.40;;;;;;;16.33;100.00;101173.41;4895564;29;20072;-89
2023/10/11 00:25:50;;;;;;;17.75;6.97;;;;;;;16.34;100.00;101166.84;4917725;29;20534;-90
2023/10/11 00:28:18;;;;;;;19.23;7.43;;;;;;;16.37;100.00;101173.13;4919636;29;20031;-89
2023/10/11 00:30:47;;;;;;;18.65;6.88;;;;;;;16.40;100.00;101170.03;4926242;29;20048;-90
2023/10/11 00:33:13;;;;;;;17.02;6.95;;;;;;;16.37;100.00;101162.06;4899670;29;20036;-89
2023/10/11 00:35:47;;;;;;;21.05;7.75;;;;;;;16.36;100.00;101161.16;4920523;29;20046;-89
2023/10/11 00:38:18;;;;;;;14.80;7.03;;;;;;;16.33;100.00;101154.06;4915489;29;20056;-90
2023/10/11 00:40:44;;;;;;;16.17;6.53;;;;;;;16.34;100.00;101141.97;4917687;29;20047;-89
2023/10/11 00:43:14;;;;;;;17.83;7.28;;;;;;;16.39;100.00;101154.47;4915444;29;20028;-88
2023/10/11 00:45:41;;;;;;;19.08;6.75;;;;;;;16.37;100.00;101142.72;4919315;29;20115;-88
2023/10/11 00:48:10;;;;;;;26.13;6.53;;;;;;;16.39;100.00;101152.56;4926423;29;20060;-87
2023/10/11 00:50:36;;;;;;;27.73;9.13;;;;;;;16.38;100.00;101150.84;4909574;29;20039;-89
2023/10/11 00:53:03;;;;;;;19.20;6.22;;;;;;;16.39;100.00;101149.81;4923051;29;20503;-89
2023/10/11 00:55:29;;;;;;;16.83;6.00;;;;;;;16.34;100.00;101155.78;4914434;29;20047;-89
2023/10/11 00:57:56;;;;;;;13.27;6.07;;;;;;;16.40;100.00;101153.44;4935349;29;20041;-88
2023/10/11 01:00:23;;;;;;;18.02;6.18;;;;;;;16.35;100.00;101149.25;4925596;29;20056;-89
2023/10/11 01:02:52;;;;;;;20.23;6.20;;;;;;;16.40;100.00;101146.03;4921805;29;20028;-89
2023/10/11 01:05:20;;;;;;;19.48;6.75;;;;;;;16.39;100.00;101143.44;4941614;29;20050;-88
2023/10/11 01:07:49;;;;;;;21.52;7.18;;;;;;;16.34;100.00;101139.22;4919501;29;20049;-76
2023/10/11 01:10:16;;;;;;;17.55;6.57;;;;;;;16.35;100.00;101152.03;4912526;29;20506;-76
2023/10/11 01:12:42;;;;;;;16.30;6.00;;;;;;;16.35;100.00;101140.09;4914986;29;20026;-75
2023/10/11 01:15:12;;;;;;;13.30;6.43;;;;;;;16.31;100.00;101145.03;4927789;29;20040;-76
2023/10/11 01:17:40;;;;;;;22.08;6.70;;;;;;;16.19;100.00;101137.97;4909994;29;20035;-76
2023/10/11 01:20:13;;;;;;;18.20;5.70;;;;;;;16.27;100.00;101138.09;4913422;29;20040;-76
2023/10/11 01:22:41;;;;;;;;;;;;;;;16.27;100.00;101127.03;4928560;29;20048;-76
2023/10/11 01:25:07;;;;;;;13.48;6.22;;;;;;;16.26;100.00;101139.09;4926517;29;19923;-76
2023/10/11 01:27:36;;;;;;;17.45;5.80;;;;;;;16.17;100.00;101134.50;4929438;29;20039;-76
2023/10/11 01:30:03;;;;;;;12.82;5.63;;;;;;;16.17;100.00;101140.03;4910218;29;20062;-76
2023/10/11 01:32:29;;;;;;;19.70;5.22;;;;;;;16.15;100.00;101136.53;4913107;29;20119;-76
2023/10/11 01:34:54;;;;;;;16.55;5.82;;;;;;;16.17;100.00;101134.50;4923107;29;20400;-76
2023/10/11 01:37:20;;;;;;;14.40;5.30;;;;;;;16.11;100.00;101124.91;4915113;29;20067;-76
2023/10/11 01:39:45;;;;;;;17.92;5.88;;;;;;;16.13;100.00;101133.94;4904495;29;20070;-76
2023/10/11 01:42:12;;;;;;;15.18;5.75;;;;;;;16.03;100.00;101123.94;4930646;29;20586;-76
2023/10/11 01:44:38;;;;;;;19.38;5.55;;;;;;;15.97;100.00;101130.91;4914591;29;20094;-76
2023/10/11 01:47:05;;;;;;;17.80;6.15;;;;;;;15.98;100.00;101124.38;4907606;29;20398;-76
2023/10/11 01:49:37;;;;;;;17.83;6.13;;;;;;;15.93;100.00;101126.72;4914432;29;20047;-76
2023/10/11 01:52:06;;;;;;;12.17;5.27;;;;;;;15.88;100.00;101129.94;4910214;29;20495;-76
2023/10/11 01:54:32;;;;;;;11.43;5.18;;;;;;;15.79;100.00;101122.56;4913478;29;20304;-75
2023/10/11 01:57:01;;;;;;;19.90;5.57;;;;;;;15.85;100.00;101126.59;4912967;29;20068;-75
2023/10/11 01:59:26;;;;;;;12.15;5.88;;;;;;;15.85;100.00;101121.09;4896994;29;20068;-75
2023/10/11 02:01:58;;;;;;;20.10;5.72;;;;;;;15.89;100.00;101122.50;4894404;29;20079;-75
2023/10/11 02:04:25;;;;;;;15.63;6.13;;;;;;;15.72;100.00;101113.09;4902712;29;20036;-76
2023/10/11 02:06:51;;;;;;;20.05;5.97;;;;;;;15.75;100.00;101118.31;4910474;29;20406;-76
2023/10/11 02:09:25;;;;;;;14.73;5.40;;;;;;;15.65;100.00;101107.28;4895517;29;20115;-74
2023/10/11 02:11:54;;;;;;;14.57;5.30;;;;;;;15.61;100.00;101106.72;4911626;29;20083;-76
2023/10/11 02:14:24;;;;;;;13.65;6.00;;;;;;;15.61;100.00;101097.59;4898890;29;20036;-76
2023/10/11 02:16:49;;;;;;;12.63;6.07;;;;;;;15.59;100.00;101094.97;4895661;29;20463;-75
2023/10/11 02:19:18;;;;;;;16.58;5.82;;;;;;;15.59;100.00;101094.97;4912590;29;20056;-89
2023/10/11 02:21:47;;;;;;;15.52;5.93;;;;;;;15.58;100.00;101095.97;4911510;29;20032;-89
2023/10/11 02:24:16;;;;;;;16.45;7.05;;;;;;;15.57;100.00;101094.22;4902947;29;20028;-89
2023/10/11 02:26:49;;;;;;;19.25;6.70;;;;;;;15.56;100.00;101094.38;4903861;29;20087;-89
2023/10/11 02:29:23;;;;;;;13.57;6.15;;;;;;;15.56;100.00;101091.59;4915872;29;20096;-89
2023/10/11 02:31:53;;;;;;;17.00;6.25;;;;;;;15.50;100.00;101098.59;4898364;29;20124;-89
2023/10/11 02:34:19;;;;;;;24.10;6.55;;;;;;;15.48;100.00;101095.13;4907220;29;20449;-89
2023/10/11 02:36:56;;;;;;;15.80;6.32;;;;;;;15.40;100.00;101100.50;4920253;29;20044;-90
2023/10/11 02:39:22;;;;;;;16.70;7.13;;;;;;;15.38;100.00;101097.00;4902089;29;20051;-89
2023/10/11 02:41:57;;;;;;;14.95;6.63;;;;;;;15.37;100.00;101095.28;4907721;29;20040;-89
2023/10/11 02:44:23;;;;;;;16.05;6.97;;;;;;;15.36;100.00;101091.63;4897932;29;20127;-90
2023/10/11 02:46:49;;;;;;;14.90;6.40;;;;;;;15.35;100.00;101087.16;4908377;29;20039;-89
2023/10/11 02:49:20;;;;;;;13.68;7.05;;;;;;;15.30;100.00;101095.00;4911063;29;20039;-89
2023/10/11 02:51:57;;;;;;;15.85;6.30;;;;;;;15.31;100.00;101082.94;4909583;29;20053;-89
2023/10/11 02:54:38;;;;;;;14.38;6.65;;;;;;;15.25;100.00;101081.66;4916378;29;20024;-89
2023/10/11 02:57:09;;;;;;;21.27;6.40;;;;;;;15.27;100.00;101094.44;4905956;29;20036;-89
2023/10/11 02:59:35;;;;;;;13.70;6.05;;;;;;;15.22;100.00;101090.22;4920902;29;20071;-89
2023/10/11 03:02:01;;;;;;;17.33;6.65;;;;;;;15.22;100.00;101081.94;4901231;29;20447;-89
2023/10/11 03:04:38;;;;;;;16.42;6.68;;;;;;;15.19;100.00;101084.97;4901609;29;20103;-89
2023/10/11 03:07:04;;;;;;;20.00;7.30;;;;;;;15.22;100.00;101094.88;4921204;29;20052;-89
2023/10/11 03:09:33;;;;;;;19.30;7.28;;;;;;;15.14;100.00;101084.56;4914870;29;20060;-90
2023/10/11 03:12:05;;;;;;;16.70;6.78;;;;;;;15.13;100.00;101084.69;4904835;29;20036;-90
2023/10/11 03:14:41;;;;;;;11.98;6.15;;;;;;;15.12;100.00;101086.59;4932713;29;20035;-90
2023/10/11 03:17:13;;;;;;;19.05;7.15;;;;;;;15.04;100.00;101084.56;4888817;29;20028;-89
2023/10/11 03:19:42;;;;;;;13.77;6.00;;;;;;;15.03;100.00;101080.03;4911642;29;20450;-89
2023/10/11 03:22:20;;;;;;;16.38;6.88;;;;;;;15.04;100.00;101070.75;4898081;29;20047;-89
2023/10/11 03:25:00;;;;;;;16.02;6.57;;;;;;;15.02;100.00;101069.16;4911840;29;20060;-89
2023/10/11 03:27:27;;;;;;;15.07;6.78;;;;;;;14.93;100.00;101070.03;4926244;29;20111;-88
2023/10/11 03:29:53;;;;;;;22.23;6.70;;;;;;;14.93;100.00;101067.28;4915226;29;20036;-89
2023/10/11 03:32:19;;;;;;;15.98;6.28;;;;;;;14.89;100.00;101072.22;4924776;29;20025;-89
2023/10/11 03:34:44;;;;;;;14.45;6.65;;;;;;;14.86;100.00;101067.84;4908369;29;20238;-89
2023/10/11 03:37:18;;;;;;;18.08;6.72;;;;;;;14.80;100.00;101057.41;4882076;29;20037;-89
2023/10/11 03:39:55;;;;;;;18.55;6.78;;;;;;;14.78;100.00;101056.69;4900916;29;20075;-88
2023/10/11 03:42:21;;;;;;;14.82;7.40;;;;;;;14.79;100.00;101052.91;4930184;29;20032;-89
2023/10/11 03:44:47;;;;;;;17.17;6.78;;;;;;;14.72;100.00;101054.50;4897473;29;20487;-89
2023/10/11 03:47:24;;;;;;;19.65;7.40;;;;;;;14.67;100.00;101059.56;4897094;29;20040;-89
2023/10/11 03:49:51;;;;;;;20.13;6.90;;;;;;;14.67;100.00;101059.56;4903674;29;20041;-88
2023/10/11 03:52:25;;;;;;;14.73;7.40;;;;;;;14.65;100.00;101067.13;4909133;29;20044;-88
2023/10/11 03:55:09;;;;;;;18.08;7.45;;;;;;;14.64;100.00;101052.47;4916473;29;20039;-88
2023/10/11 03:57:45;;;;;;;16.83;6.75;;;;;;;14.56;100.00;101063.31;4902954;29;20068;-89
2023/10/11 04:02:48;;;;;;;16.02;7.03;;;;;;;14.48;100.00;101060.41;4907107;29;20080;-89
2023/10/11 04:05:15;;;;;;;17.48;6.78;;;;;;;14.51;100.00;101065.59;4909038;29;20111;-88
2023/10/11 04:07:40;;;;;;;15.15;6.68;;;;;;;14.49;100.00;101060.25;4902991;29;20416;-90
2023/10/11 04:10:19;;;;;;;21.35;7.72;;;;;;;14.50;100.00;101073.00;4913633;29;20040;-88
2023/10/11 04:12:45;;;;;;;15.90;7.03;;;;;;;14.44;100.00;101056.16;4936084;29;20047;-89
2023/10/11 04:15:24;;;;;;;17.67;7.13;;;;;;;14.45;100.00;101068.94;4928373;29;20439;-89
2023/10/11 04:17:50;;;;;;;17.50;7.55;;;;;;;14.43;100.00;101060.81;4914761;29;20038;-90
2023/10/11 04:20:31;;;;;;;16.90;7.50;;;;;;;14.41;100.00;101062.81;4911379;29;20041;-89
2023/10/11 04:23:14;;;;;;;17.27;7.45;;;;;;;14.43;100.00;101065.44;4910229;29;20028;-89
2023/10/11 04:25:39;;;;;;;;;;;;;;;14.31;100.00;101062.81;4906142;29;20033;-87
2023/10/11 04:28:05;;;;;;;16.70;7.38;;;;;;;14.28;100.00;101059.44;4911208;29;20018;-86
2023/10/11 04:30:44;;;;;;;16.73;7.57;;;;;;;14.26;100.00;101053.22;4914912;29;20032;-87
2023/10/11 04:33:29;;;;;;;15.52;7.72;;;;;;;14.24;100.00;101058.88;4904896;29;20413;-84
2023/10/11 04:35:58;;;;;;;16.70;7.93;;;;;;;14.20;100.00;101046.41;4914772;29;20087;-86
2023/10/11 04:38:24;;;;;;;19.90;8.15;;;;;;;14.19;100.00;101043.78;4897644;29;20054;-84
2023/10/11 04:41:14;;;;;;;20.25;7.35;;;;;;;14.18;100.00;101042.03;4909643;29;20048;-87
2023/10/11 04:43:50;;;;;;;16.58;7.90;;;;;;;14.16;100.00;101043.03;4906463;29;20036;-89
2023/10/11 04:46:18;;;;;;;13.90;7.63;;;;;;;14.21;100.00;101050.03;4916639;29;20538;-90
2023/10/11 04:48:45;;;;;;;16.42;7.70;;;;;;;14.16;100.00;101045.78;4917460;29;20032;-88
2023/10/11 04:53:58;;;;;;;16.83;7.97;;;;;;;14.21;100.00;101044.50;4896272;29;20052;-89
2023/10/11 05:04:33;;;;;;;16.40;8.38;;;;;;;14.15;100.00;101038.56;4875432;29;20079;-89
2023/10/11 05:07:07;;;;;;;20.40;8.05;;;;;;;14.19;100.00;101049.31;4883023;29;20127;-88
2023/10/11 05:09:42;;;;;;;16.02;7.53;;;;;;;14.23;100.00;101051.63;4884748;29;20025;-88
2023/10/11 05:14:40;;;;;;;20.88;8.93;;;;;;;14.20;100.00;101045.50;4878989;29;20032;-89
2023/10/11 05:25:28;;;;;;;22.77;8.32;;;;;;;14.19;100.00;101047.41;4883038;29;20143;-90
2023/10/11 05:29:09;;;;;;;29.40;8.80;;;;;;;14.17;100.00;101063.22;4882573;29;20077;-89
2023/10/11 05:34:29;;;;;;;20.45;8.00;;;;;;;14.19;100.00;101061.19;4895719;29;20036;-88
2023/10/11 05:50:50;;;;;;;22.42;9.15;;;;;;;14.17;100.00;101060.44;4909057;29;20115;-88
2023/10/11 05:50:50;;;;;;;21.20;9.05;;;;;;;14.20;100.00;101076.69;4883116;29;20055;-75
2023/10/11 05:53:16;;;;;;;25.45;8.90;;;;;;;14.24;100.00;101075.38;4905234;29;20083;-75
2023/10/11 05:55:42;;;;;;;16.88;8.77;;;;;;;14.22;100.00;101079.31;4922831;29;20499;-75
2023/10/11 05:58:08;;;;;;;15.82;7.53;;;;;;;14.18;100.00;101078.69;4911272;29;20074;-75
2023/10/11 06:00:38;;;;;;;22.30;9.10;;;;;;;14.19;100.00;101082.34;4909180;29;20067;-75
2023/10/11 06:03:05;;;;;;;14.93;8.43;;;;;;;14.19;100.00;101082.34;4907806;29;20052;-75
2023/10/11 06:05:39;;;;;;;21.33;8.18;;;;;;;14.23;100.00;101072.78;4908734;29;20092;-75
2023/10/11 06:08:07;;;;;;;26.25;8.43;;;;;;;14.26;100.00;101067.00;4901407;29;20116;-76
2023/10/11 06:10:41;;;;;;;18.55;7.93;;;;;;;14.20;100.00;101068.44;4913032;29;20486;-76
2023/10/11 06:13:19;;;;;;;25.33;8.32;;;;;;;14.18;100.00;101066.81;4914494;29;20153;-75
2023/10/11 06:16:00;;;;;;;24.50;8.43;;;;;;;14.23;100.00;101070.03;4909348;29;20036;-75
2023/10/11 06:18:55;;;;;;;19.40;7.88;;;;;;;14.35;100.00;101071.66;4907385;29;20032;-76
2023/10/11 06:21:33;;;;;;;21.67;8.15;;;;;;;14.32;100.00;101082.97;4905871;29;20031;-76
2023/10/11 06:24:05;;;;;;;22.42;8.65;;;;;;;14.27;100.00;101082.53;4927120;29;20035;-78
2023/10/11 06:29:03;;;;;;;22.80;8.57;;;;;;;14.51;100.00;101079.38;4907284;29;20043;-76
2023/10/11 06:31:39;;;;;;;25.08;8.70;;;;;;;14.57;100.00;101072.44;4912361;29;20070;-76
2023/10/11 06:34:15;;;;;;;18.73;7.95;;;;;;;14.66;100.00;101074.38;4913205;29;20024;-76
2023/10/11 06:36:50;;;;;;;15.95;8.05;;;;;;;14.66;100.00;101058.72;4912149;29;20028;-78
2023/10/11 06:42:12;;;;;;;23.60;8.15;;;;;;;14.72;100.00;101056.38;4896801;29;20080;-77
2023/10/11 06:44:51;;;;;;;17.73;8.98;;;;;;;14.75;100.00;101061.63;4896320;29;20043;-76
2023/10/11 06:47:18;;;;;;;17.77;8.02;;;;;;;14.78;100.00;101069.59;4908039;29;20063;-76
2023/10/11 06:49:44;;;;;;;18.08;8.32;;;;;;;14.85;100.00;101074.38;4914246;29;20035;-76
2023/10/11 06:52:19;;;;;;;25.23;7.93;;;;;;;14.95;100.00;101066.09;4909426;29;20040;-76
2023/10/11 06:54:49;;;;;;;18.88;7.72;;;;;;;15.01;100.00;101064.69;4900030;29;20040;-76
2023/10/11 06:57:21;;;;;;;20.20;7.70;;;;;;;15.09;100.00;101067.56;4896479;29;20036;-77
2023/10/11 06:59:51;;;;;;;14.57;7.43;;;;;;;15.10;100.00;101074.81;4911170;29;20055;-87
2023/10/11 07:02:31;;;;;;;14.10;7.68;;;;;;;15.17;100.00;101073.22;4908743;29;20052;-83
2023/10/11 07:05:05;;;;;;;22.20;8.32;;;;;;;15.25;100.00;101075.25;4908212;29;20035;-84
2023/10/11 07:07:34;;;;;;;21.38;8.32;;;;;;;15.28;100.00;101074.94;4893587;29;20119;-86
2023/10/11 07:10:28;;;;;;;21.40;8.07;;;;;;;15.38;100.00;101072.19;4902298;29;20162;-87
2023/10/11 07:13:03;;;;;;;25.85;7.63;;;;;;;15.46;100.00;101074.19;4918646;29;20035;-85
2023/10/11 07:15:37;;;;;;;16.33;7.43;;;;;;;15.54;100.00;101066.91;4886657;29;20040;-85
2023/10/11 07:18:08;;;;;;;17.52;6.85;;;;;;;15.46;100.00;101077.81;4896192;29;20067;-85
2023/10/11 07:23:19;;;;;;;19.75;7.65;;;;;;;15.58;100.00;101087.69;4908469;29;20121;-86
2023/10/11 07:25:47;;;;;;;19.23;7.25;;;;;;;15.66;100.00;101089.72;4898200;29;20040;-86
2023/10/11 07:28:35;;;;;;;20.73;6.97;;;;;;;15.73;100.00;101101.03;4902267;29;20482;-86
2023/10/11 07:31:02;;;;;;;16.90;6.57;;;;;;;15.97;100.00;101108.81;4900765;29;20048;-86
2023/10/11 07:33:29;;;;;;;19.35;7.47;;;;;;;16.25;100.00;101101.47;4880697;29;20498;-86
2023/10/11 07:35:59;;;;;;;17.50;7.82;;;;;;;16.17;100.00;101104.97;4906575;29;20552;-86
2023/10/11 07:38:33;;;;;;;15.57;6.72;;;;;;;16.13;100.00;101108.19;4912431;29;20471;-87
2023/10/11 07:41:17;;;;;;;20.02;7.50;;;;;;;16.25;100.00;101114.38;4898622;29;20043;-88
2023/10/11 07:43:45;;;;;;;15.88;6.95;;;;;;;16.28;100.00;101119.59;4907170;29;20039;-86
2023/10/11 07:46:11;;;;;;;19.20;7.20;;;;;;;16.26;100.00;101125.28;4907153;29;20036;-85
2023/10/11 07:48:36;;;;;;;17.50;6.88;;;;;;;16.57;100.00;101126.91;4876732;29;20484;-85
2023/10/11 07:51:09;;;;;;;13.95;6.63;;;;;;;16.58;100.00;101126.75;4896253;29;20035;-84
2023/10/11 07:53:43;;;;;;;17.80;7.20;;;;;;;16.48;100.00;101123.16;4902391;29;20103;-86
2023/10/11 07:56:10;;;;;;;18.00;6.82;;;;;;;16.78;100.00;101124.72;4910781;29;20075;-85
2023/10/11 07:58:44;;;;;;;28.38;7.07;;;;;;;16.70;100.00;101128.25;4914317;29;20038;-86
2023/10/11 08:01:30;;;;;;;16.35;7.38;;;;;;;16.79;100.00;101132.00;4907633;29;20024;-86
2023/10/11 08:03:55;;;;;;;19.95;6.78;;;;;;;16.96;100.00;101124.78;4912792;29;20469;-86
2023/10/11 08:06:24;;;;;;;17.35;7.63;;;;;;;16.78;100.00;101130.25;4908561;29;20499;-86
2023/10/11 08:09:01;;;;;;;14.18;6.68;;;;;;;17.00;100.00;101123.44;4910186;29;20542;-86
2023/10/11 08:11:36;;;;;;;14.57;6.38;;;;;;;16.80;100.00;101119.03;4926671;29;20051;-85
2023/10/11 08:14:02;;;;;;;18.23;6.78;;;;;;;17.09;100.00;101119.72;4901210;29;20479;-86
2023/10/11 08:16:33;;;;;;;19.65;6.75;;;;;;;17.08;100.00;101117.13;4924050;29;20139;-86
2023/10/11 08:18:59;;;;;;;23.30;7.95;;;;;;;17.22;100.00;101110.19;4922140;29;20043;-86
2023/10/11 08:21:24;;;;;;;18.20;7.53;;;;;;;17.34;100.00;101111.66;4922156;29;20044;-85
2023/10/11 08:23:50;;;;;;;13.90;6.93;;;;;;;17.32;100.00;101101.78;4925136;29;20028;-85
2023/10/11 08:26:17;;;;;;;18.17;6.97;;;;;;;17.42;100.00;101105.31;4913893;29;20458;-85
2023/10/11 08:28:49;;;;;;;16.35;6.95;;;;;;;17.68;100.00;101110.91;4913762;29;20040;-86
2023/10/11 08:33:59;;;;;;;17.52;7.20;;;;;;;17.88;100.00;101110.72;4910943;29;20522;-86
2023/10/11 08:36:29;;;;;;;22.13;7.25;;;;;;;17.86;100.00;101118.31;4917713;29;20032;-85
2023/10/11 08:38:56;;;;;;;23.38;7.45;;;;;;;18.25;100.00;101103.97;4913249;29;20043;-85
2023/10/11 08:41:22;;;;;;;18.90;7.72;;;;;;;18.34;100.00;101103.00;4909735;29;20040;-86
2023/10/11 08:43:49;;;;;;;18.38;7.03;;;;;;;18.58;100.00;101104.13;4912374;29;20483;-86
2023/10/11 08:46:19;;;;;;;20.30;7.15;;;;;;;18.74;100.00;101113.38;4908436;29;20035;-85
2023/10/11 08:48:50;;;;;;;19.48;8.05;;;;;;;18.66;100.00;101104.16;4915596;29;20024;-86
2023/10/11 08:51:21;;;;;;;21.60;7.38;;;;;;;18.42;100.00;101105.81;4903718;29;20024;-86
2023/10/11 08:53:54;;;;;;;23.20;7.50;;;;;;;18.45;100.00;101111.03;4916395;29;20059;-86
2023/10/11 08:56:23;;;;;;;19.60;6.95;;;;;;;18.55;100.00;101108.13;4908265;29;20042;-86
2023/10/11 08:58:51;;;;;;;22.50;8.23;;;;;;;18.86;100.00;101110.31;4917013;29;20450;-85
2023/10/11 09:01:18;;;;;;;16.95;7.40;;;;;;;18.89;100.00;101112.78;4911754;29;20027;-86
2023/10/11 09:04:03;;;;;;;21.35;7.50;;;;;;;18.83;100.00;101125.41;4924648;29;20036;-86
2023/10/11 09:06:31;;;;;;;14.02;7.60;;;;;;;19.15;100.00;101125.63;4912164;29;20048;-86
2023/10/11 09:09:00;;;;;;;20.55;8.13;;;;;;;19.19;100.00;101124.25;4905456;29;20037;-87
2023/10/11 09:11:35;;;;;;;22.15;7.93;;;;;;;18.86;100.00;101115.88;4929479;29;20040;-85
2023/10/11 09:14:27;;;;;;;19.75;7.30;;;;;;;19.00;100.00;101111.56;4930514;29;20064;-87
2023/10/11 09:17:02;;;;;;;21.10;8.25;;;;;;;19.15;100.00;101108.97;4916614;29;20030;-87
2023/10/11 09:19:28;;;;;;;22.17;7.50;;;;;;;18.76;100.00;101115.09;4910903;29;20044;-76
2023/10/11 09:22:04;;;;;;;21.25;7.32;;;;;;;19.09;100.00;101127.19;4913829;29;20088;-76
2023/10/11 09:24:41;;;;;;;19.58;7.45;;;;;;;18.93;100.00;101122.47;4927054;29;20047;-74
2023/10/11 09:29:44;;;;;;;19.10;7.03;;;;;;;19.90;100.00;101144.09;4909553;29;20547;-74
2023/10/11 09:32:09;;;;;;;21.02;7.00;;;;;;;19.69;100.00;101141.81;4908764;29;20511;-75
2023/10/11 09:34:41;;;;;;;29.30;7.30;;;;;;;19.67;100.00;101132.78;4917009;29;20151;-75
2023/10/11 09:37:11;;;;;;;25.60;7.97;;;;;;;20.12;100.00;101135.00;4903889;29;20091;-75
2023/10/11 09:39:42;;;;;;;17.80;7.40;;;;;;;20.00;100.00;101128.06;4917289;29;20436;-77
2023/10/11 09:42:12;;;;;;;22.60;6.88;;;;;;;19.86;100.00;101143.56;4910739;29;20020;-76
2023/10/11 09:44:39;;;;;;;16.75;7.55;;;;;;;19.71;100.00;101132.25;4924617;29;20103;-76
2023/10/11 09:47:06;;;;;;;19.00;7.95;;;;;;;19.93;100.00;101129.84;4908992;29;20036;-76
2023/10/11 09:49:41;;;;;;;14.05;7.13;;;;;;;20.15;100.00;101125.44;4914758;29;20052;-76
2023/10/11 09:52:15;;;;;;;19.25;7.20;;;;;;;20.08;100.00;101135.53;4911201;29;20071;-76
2023/10/11 09:54:41;;;;;;;18.40;7.53;;;;;;;20.22;100.00;101143.16;4910249;29;20033;-76
2023/10/11 09:57:15;;;;;;;18.25;7.78;;;;;;;19.99;100.00;101148.59;4904312;29;20476;-76
2023/10/11 10:00:00;;;;;;;19.52;8.20;;;;;;;20.27;100.00;101154.59;4914287;29;20024;-76
2023/10/11 10:02:33;;;;;;;18.55;7.38;;;;;;;20.30;100.00;101164.50;4892562;29;20020;-76
2023/10/11 10:05:04;;;;;;;18.48;8.05;;;;;;;20.22;100.00;101161.72;4908843;29;20482;-76
2023/10/11 10:10:15;;;;;;;16.85;7.70;;;;;;;20.45;100.00;101154.38;4907901;29;20092;-76
2023/10/11 10:12:41;;;;;;;18.58;8.10;;;;;;;20.32;100.00;101160.50;4906876;29;20539;-76
2023/10/11 10:15:20;;;;;;;16.80;7.32;;;;;;;19.99;100.00;101171.69;4899281;29;20028;-76
2023/10/11 10:18:03;;;;;;;18.52;7.97;;;;;;;19.96;100.00;101160.91;4899768;29;20035;-76
2023/10/11 10:20:42;;;;;;;19.08;7.65;;;;;;;19.83;100.00;101150.31;4904829;29;20037;-76
2023/10/11 10:23:16;;;;;;;22.95;8.65;;;;;;;19.98;100.00;101147.69;4910981;29;20028;-76
2023/10/11 10:25:48;;;;;;;23.02;8.80;;;;;;;20.48;100.00;101155.91;4898219;29;20034;-76
2023/10/11 10:28:47;;;;;;;21.77;8.27;;;;;;;20.66;100.00;101148.25;4911139;29;20111;-76
2023/10/11 10:31:16;;;;;;;22.38;8.80;;;;;;;20.80;100.00;101148.53;4914131;29;20166;-76
2023/10/11 10:33:49;;;;;;;15.73;7.65;;;;;;;20.82;100.00;101155.63;4908896;29;20020;-77
2023/10/11 10:36:17;;;;;;;16.83;8.23;;;;;;;21.23;100.00;101166.53;4909431;29;20052;-78
2023/10/11 10:38:59;;;;;;;18.42;7.57;;;;;;;21.38;100.00;101180.56;4898887;29;20495;-77
2023/10/11 10:41:26;;;;;;;20.35;8.10;;;;;;;20.91;100.00;101171.25;4914341;29;20095;-76
2023/10/11 10:44:06;;;;;;;21.73;8.23;;;;;;;20.90;100.00;101168.66;4912033;29;20047;-76
2023/10/11 10:46:33;;;;;;;14.85;7.47;;;;;;;21.42;100.00;101154.03;4909189;29;20487;-77
2023/10/11 10:49:04;;;;;;;16.02;9.15;;;;;;;20.97;100.00;101146.50;4914233;29;20120;-76
2023/10/11 10:51:35;;;;;;;17.42;8.23;;;;;;;20.42;100.00;101142.75;4912500;29;20064;-77
2023/10/11 10:54:12;;;;;;;20.98;8.02;;;;;;;20.37;100.00;101148.84;4919998;29;20081;-76
2023/10/11 10:56:39;;;;;;;26.75;8.18;;;;;;;20.24;100.00;101145.75;4909278;29;20122;-76
2023/10/11 10:59:12;;;;;;;19.15;8.93;;;;;;;20.02;100.00;101140.75;4913125;29;20028;-76
2023/10/11 11:01:38;;;;;;;22.40;8.60;;;;;;;19.92;100.00;101150.31;4925320;29;20059;-76
2023/10/11 11:04:08;;;;;;;27.52;9.15;;;;;;;20.11;100.00;101141.59;4908672;29;20032;-76
2023/10/11 11:06:44;;;;;;;18.17;9.13;;;;;;;20.25;100.00;101137.25;4913199;29;20040;-77
2023/10/11 11:09:29;;;;;;;32.75;10.13;;;;;;;20.32;100.00;101135.47;4907275;29;20055;-76
2023/10/11 11:12:14;;;;;;;21.30;8.88;;;;;;;20.48;100.00;101142.91;4904355;29;20043;-75
2023/10/11 11:14:54;;;;;;;17.27;9.10;;;;;;;20.55;100.00;101143.03;4908990;29;20036;-76
2023/10/11 11:17:19;;;;;;;19.52;8.73;;;;;;;20.86;100.00;101139.47;4906795;29;20137;-77
2023/10/11 11:22:49;;;;;;;17.90;8.00;;;;;;;20.89;100.00;101134.38;4907255;29;20559;-76
2023/10/11 11:28:17;;;;;;;13.75;7.70;;;;;;;20.96;100.00;101128.09;4899519;29;20054;-77
2023/10/11 11:31:11;;;;;;;;;;;;;;;20.85;100.00;101133.00;4916340;29;20418;-76
2023/10/11 11:33:47;;;;;;;18.05;8.68;;;;;;;20.63;100.00;101122.63;4913750;29;19915;-76
2023/10/11 11:36:30;;;;;;;18.33;8.73;;;;;;;20.70;100.00;101112.56;4909300;29;20107;-76
2023/10/11 11:39:16;;;;;;;17.60;8.60;;;;;;;20.88;100.00;101113.16;4906897;29;20032;-86
2023/10/11 11:41:55;;;;;;;19.25;9.35;;;;;;;21.19;100.00;101105.84;4921233;29;20039;-87
2023/10/11 11:44:27;;;;;;;19.83;8.95;;;;;;;21.17;100.00;101102.34;4906577;29;20028;-86
2023/10/11 11:46:54;;;;;;;18.90;9.25;;;;;;;21.18;100.00;101092.94;4906220;29;20036;-87
2023/10/11 11:49:24;;;;;;;19.50;8.68;;;;;;;21.04;100.00;101097.41;4915400;29;20043;-87
2023/10/11 11:51:51;;;;;;;16.52;8.98;;;;;;;21.14;100.00;101081.31;4910680;29;20032;-86
2023/10/11 11:54:21;;;;;;;21.63;8.63;;;;;;;21.08;100.00;101085.69;4913651;29;20043;-86
2023/10/11 11:56:47;;;;;;;20.60;7.78;;;;;;;21.14;100.00;101078.53;4910896;29;20040;-86
2023/10/11 11:59:19;;;;;;;21.10;8.45;;;;;;;21.06;100.00;101078.59;4894688;29;20051;-87
2023/10/11 12:01:49;;;;;;;19.83;8.43;;;;;;;21.21;100.00;101075.88;4912456;29;20065;-86
2023/10/11 12:04:24;;;;;;;22.00;8.25;;;;;;;21.43;100.00;101071.31;4892077;29;20024;-86
2023/10/11 12:06:50;;;;;;;24.83;8.90;;;;;;;21.19;100.00;101070.47;4897645;29;20501;-87
2023/10/11 12:09:31;;;;;;;22.58;8.10;;;;;;;21.15;100.00;101068.25;4910327;29;20087;-86
2023/10/11 12:12:02;;;;;;;19.52;9.05;;;;;;;21.29;100.00;101059.94;4914498;29;20052;-87
2023/10/11 12:14:28;;;;;;;21.90;9.38;;;;;;;21.36;100.00;101054.50;4929522;29;20032;-86
2023/10/11 12:16:55;;;;;;;17.20;8.98;;;;;;;21.34;100.00;101061.31;4903411;29;20182;-86
2023/10/11 12:19:21;;;;;;;19.23;9.07;;;;;;;21.46;100.00;101063.47;4894702;29;20043;-86
2023/10/11 12:21:46;;;;;;;23.25;9.57;;;;;;;21.41;100.00;101071.50;4888637;29;20028;-86
2023/10/11 12:24:12;;;;;;;21.17;9.90;;;;;;;21.56;100.00;101063.25;4917116;29;20390;-86
2023/10/11 12:26:43;;;;;;;25.00;10.25;;;;;;;21.48;100.00;101063.31;4914152;29;20039;-87
2023/10/11 12:29:09;;;;;;;25.30;10.13;;;;;;;21.43;100.00;101061.06;4911507;29;20387;-87
2023/10/11 12:31:39;;;;;;;18.85;9.70;;;;;;;21.57;100.00;101053.81;4899742;29;20468;-86